sensor_id;sensor_type;location;lat;lon;timestamp;P1;durP1;ratioP1;P2;durP2;ratioP2
2766;SDS011;1391;46.742;11.636;2023-02-28T00:00:18;2.17;;;1.60;;
2766;SDS011;1391;46.742;11.636;2023-02-28T00:02:46;3.63;;;1.90;;
2766;SDS011;1391;46.742;11.636;2023-02-28T00:05:16;2.13;;;1.47;;
2766;SDS011;1391;46.742;11.636;2023-02-28T00:07:46;2.17;;;1.70;;
2766;SDS011;1391;46.742;11.636;2023-02-28T00:10:17;1.87;;;1.40;;
2766;SDS011;1391;46.742;11.636;2023-02-28T00:12:46;1.70;;;1.60;;
2766;SDS011;1391;46.742;11.636;2023-02-28T00:15:13;4.03;;;2.07;;
2766;SDS011;1391;46.742;11.636;2023-02-28T00:17:40;1.93;;;1.80;;
2766;SDS011;1391;46.742;11.636;2023-02-28T00:20:08;2.30;;;1.87;;
2766;SDS011;1391;46.742;11.636;2023-02-28T00:22:39;2.87;;;1.80;;
2766;SDS011;1391;46.742;11.636;2023-02-28T00:25:09;2.90;;;2.20;;
2766;SDS011;1391;46.742;11.636;2023-02-28T00:27:41;1.87;;;1.70;;
2766;SDS011;1391;46.742;11.636;2023-02-28T00:30:10;2.00;;;1.70;;
2766;SDS011;1391;46.742;11.636;2023-02-28T00:32:39;2.30;;;1.70;;
2766;SDS011;1391;46.742;11.636;2023-02-28T00:35:08;1.73;;;1.63;;
2766;SDS011;1391;46.742;11.636;2023-02-28T00:37:36;1.90;;;1.80;;
2766;SDS011;1391;46.742;11.636;2023-02-28T00:40:04;4.37;;;1.70;;
2766;SDS011;1391;46.742;11.636;2023-02-28T00:42:34;2.33;;;1.80;;
2766;SDS011;1391;46.742;11.636;2023-02-28T00:45:04;2.33;;;2.03;;
2766;SDS011;1391;46.742;11.636;2023-02-28T00:47:33;2.00;;;1.67;;
2766;SDS011;1391;46.742;11.636;2023-02-28T00:50:00;2.80;;;2.00;;
2766;SDS011;1391;46.742;11.636;2023-02-28T00:52:28;2.90;;;1.90;;
2766;SDS011;1391;46.742;11.636;2023-02-28T00:54:55;1.87;;;1.70;;
2766;SDS011;1391;46.742;11.636;2023-02-28T00:57:23;2.57;;;1.93;;
2766;SDS011;1391;46.742;11.636;2023-02-28T00:59:50;2.20;;;2.00;;
2766;SDS011;1391;46.742;11.636;2023-02-28T01:02:22;2.30;;;1.80;;
2766;SDS011;1391;46.742;11.636;2023-02-28T01:04:49;2.03;;;1.83;;
2766;SDS011;1391;46.742;11.636;2023-02-28T01:07:17;2.10;;;1.80;;
2766;SDS011;1391;46.742;11.636;2023-02-28T01:09:44;2.13;;;1.80;;
2766;SDS011;1391;46.742;11.636;2023-02-28T01:12:11;2.37;;;2.03;;
2766;SDS011;1391;46.742;11.636;2023-02-28T01:14:38;2.40;;;1.93;;
2766;SDS011;1391;46.742;11.636;2023-02-28T01:17:06;3.00;;;2.20;;
2766;SDS011;1391;46.742;11.636;2023-02-28T01:19:34;2.37;;;1.90;;
2766;SDS011;1391;46.742;11.636;2023-02-28T01:22:02;4.80;;;1.93;;
2766;SDS011;1391;46.742;11.636;2023-02-28T01:24:30;3.47;;;2.10;;
2766;SDS011;1391;46.742;11.636;2023-02-28T01:26:58;2.90;;;2.00;;
2766;SDS011;1391;46.742;11.636;2023-02-28T01:29:25;2.27;;;2.00;;
2766;SDS011;1391;46.742;11.636;2023-02-28T01:31:52;3.07;;;2.17;;
2766;SDS011;1391;46.742;11.636;2023-02-28T01:34:19;2.90;;;2.10;;
2766;SDS011;1391;46.742;11.636;2023-02-28T01:36:55;2.53;;;2.20;;
2766;SDS011;1391;46.742;11.636;2023-02-28T01:39:23;2.40;;;2.00;;
2766;SDS011;1391;46.742;11.636;2023-02-28T01:41:51;2.57;;;1.90;;
2766;SDS011;1391;46.742;11.636;2023-02-28T01:47:28;2.90;;;1.97;;
2766;SDS011;1391;46.742;11.636;2023-02-28T01:49:59;2.50;;;2.03;;
2766;SDS011;1391;46.742;11.636;2023-02-28T01:52:31;2.40;;;2.00;;
2766;SDS011;1391;46.742;11.636;2023-02-28T01:54:59;2.77;;;1.90;;
2766;SDS011;1391;46.742;11.636;2023-02-28T01:57:30;2.13;;;1.90;;
2766;SDS011;1391;46.742;11.636;2023-02-28T02:00:05;2.30;;;2.10;;
2766;SDS011;1391;46.742;11.636;2023-02-28T02:02:35;2.77;;;2.03;;
2766;SDS011;1391;46.742;11.636;2023-02-28T02:05:04;3.93;;;2.07;;
2766;SDS011;1391;46.742;11.636;2023-02-28T02:07:38;2.77;;;2.23;;
2766;SDS011;1391;46.742;11.636;2023-02-28T02:10:11;2.83;;;2.20;;
2766;SDS011;1391;46.742;11.636;2023-02-28T02:15:52;3.20;;;2.20;;
2766;SDS011;1391;46.742;11.636;2023-02-28T02:18:29;3.83;;;2.20;;
2766;SDS011;1391;46.742;11.636;2023-02-28T02:27:38;2.83;;;2.50;;
2766;SDS011;1391;46.742;11.636;2023-02-28T02:36:55;2.27;;;2.07;;
2766;SDS011;1391;46.742;11.636;2023-02-28T02:39:38;3.40;;;2.60;;
2766;SDS011;1391;46.742;11.636;2023-02-28T02:42:16;3.00;;;2.27;;
2766;SDS011;1391;46.742;11.636;2023-02-28T02:44:51;2.43;;;2.13;;
2766;SDS011;1391;46.742;11.636;2023-02-28T02:47:27;3.63;;;2.33;;
2766;SDS011;1391;46.742;11.636;2023-02-28T02:49:59;3.07;;;2.43;;
2766;SDS011;1391;46.742;11.636;2023-02-28T02:52:34;3.90;;;2.40;;
2766;SDS011;1391;46.742;11.636;2023-02-28T02:55:06;4.10;;;2.50;;
2766;SDS011;1391;46.742;11.636;2023-02-28T02:57:38;3.00;;;2.50;;
2766;SDS011;1391;46.742;11.636;2023-02-28T03:00:11;4.40;;;2.60;;
2766;SDS011;1391;46.742;11.636;2023-02-28T03:02:41;3.17;;;2.67;;
2766;SDS011;1391;46.742;11.636;2023-02-28T03:05:14;4.27;;;2.80;;
2766;SDS011;1391;46.742;11.636;2023-02-28T03:07:48;2.80;;;2.50;;
2766;SDS011;1391;46.742;11.636;2023-02-28T03:10:27;3.97;;;2.70;;
2766;SDS011;1391;46.742;11.636;2023-02-28T03:13:06;2.67;;;2.33;;
2766;SDS011;1391;46.742;11.636;2023-02-28T03:15:54;2.93;;;2.63;;
2766;SDS011;1391;46.742;11.636;2023-02-28T03:18:40;3.20;;;2.40;;
2766;SDS011;1391;46.742;11.636;2023-02-28T03:21:20;3.10;;;2.57;;
2766;SDS011;1391;46.742;11.636;2023-02-28T03:23:56;2.50;;;2.30;;
2766;SDS011;1391;46.742;11.636;2023-02-28T03:26:31;2.83;;;2.23;;
2766;SDS011;1391;46.742;11.636;2023-02-28T03:29:07;2.83;;;2.37;;
2766;SDS011;1391;46.742;11.636;2023-02-28T03:31:48;3.40;;;2.60;;
2766;SDS011;1391;46.742;11.636;2023-02-28T03:34:22;3.23;;;2.73;;
2766;SDS011;1391;46.742;11.636;2023-02-28T03:36:55;3.30;;;2.50;;
2766;SDS011;1391;46.742;11.636;2023-02-28T03:39:28;2.90;;;2.47;;
2766;SDS011;1391;46.742;11.636;2023-02-28T03:42:04;2.90;;;2.60;;
2766;SDS011;1391;46.742;11.636;2023-02-28T03:44:37;5.73;;;2.90;;
2766;SDS011;1391;46.742;11.636;2023-02-28T03:47:10;3.60;;;2.70;;
2766;SDS011;1391;46.742;11.636;2023-02-28T03:49:43;3.87;;;2.77;;
2766;SDS011;1391;46.742;11.636;2023-02-28T03:52:20;2.60;;;2.40;;
2766;SDS011;1391;46.742;11.636;2023-02-28T03:54:54;3.90;;;3.10;;
2766;SDS011;1391;46.742;11.636;2023-02-28T03:57:32;3.73;;;2.67;;
2766;SDS011;1391;46.742;11.636;2023-02-28T04:00:08;3.67;;;2.40;;
2766;SDS011;1391;46.742;11.636;2023-02-28T04:02:43;2.90;;;2.60;;
2766;SDS011;1391;46.742;11.636;2023-02-28T04:05:11;2.93;;;2.63;;
2766;SDS011;1391;46.742;11.636;2023-02-28T04:07:41;2.70;;;2.33;;
2766;SDS011;1391;46.742;11.636;2023-02-28T04:10:10;3.40;;;2.87;;
2766;SDS011;1391;46.742;11.636;2023-02-28T04:12:40;4.07;;;2.93;;
2766;SDS011;1391;46.742;11.636;2023-02-28T04:15:08;3.17;;;2.70;;
2766;SDS011;1391;46.742;11.636;2023-02-28T04:17:36;3.13;;;2.73;;
2766;SDS011;1391;46.742;11.636;2023-02-28T04:20:06;3.33;;;2.77;;
2766;SDS011;1391;46.742;11.636;2023-02-28T04:22:37;3.93;;;3.57;;
2766;SDS011;1391;46.742;11.636;2023-02-28T04:25:06;3.83;;;3.00;;
2766;SDS011;1391;46.742;11.636;2023-02-28T04:27:34;4.23;;;3.03;;
2766;SDS011;1391;46.742;11.636;2023-02-28T04:30:02;3.67;;;2.80;;
2766;SDS011;1391;46.742;11.636;2023-02-28T04:32:30;3.30;;;2.67;;
2766;SDS011;1391;46.742;11.636;2023-02-28T04:35:00;3.23;;;2.63;;
2766;SDS011;1391;46.742;11.636;2023-02-28T04:37:28;3.60;;;2.67;;
2766;SDS011;1391;46.742;11.636;2023-02-28T04:39:55;3.93;;;2.70;;
2766;SDS011;1391;46.742;11.636;2023-02-28T04:42:24;5.10;;;2.70;;
2766;SDS011;1391;46.742;11.636;2023-02-28T04:45:00;4.63;;;3.10;;
2766;SDS011;1391;46.742;11.636;2023-02-28T04:47:29;3.70;;;2.97;;
2766;SDS011;1391;46.742;11.636;2023-02-28T04:49:56;3.57;;;2.70;;
2766;SDS011;1391;46.742;11.636;2023-02-28T04:52:24;3.30;;;3.00;;
2766;SDS011;1391;46.742;11.636;2023-02-28T04:54:51;6.10;;;2.83;;
2766;SDS011;1391;46.742;11.636;2023-02-28T04:57:18;2.87;;;2.63;;
2766;SDS011;1391;46.742;11.636;2023-02-28T04:59:48;4.30;;;3.10;;
2766;SDS011;1391;46.742;11.636;2023-02-28T05:02:17;3.20;;;2.90;;
2766;SDS011;1391;46.742;11.636;2023-02-28T05:04:46;4.43;;;3.17;;
2766;SDS011;1391;46.742;11.636;2023-02-28T05:07:13;3.80;;;2.90;;
2766;SDS011;1391;46.742;11.636;2023-02-28T05:09:45;5.03;;;3.03;;
2766;SDS011;1391;46.742;11.636;2023-02-28T05:12:12;3.63;;;2.83;;
2766;SDS011;1391;46.742;11.636;2023-02-28T05:14:39;3.33;;;2.50;;
2766;SDS011;1391;46.742;11.636;2023-02-28T05:17:08;3.47;;;2.97;;
2766;SDS011;1391;46.742;11.636;2023-02-28T05:19:36;6.63;;;2.87;;
2766;SDS011;1391;46.742;11.636;2023-02-28T05:22:03;3.53;;;2.70;;
2766;SDS011;1391;46.742;11.636;2023-02-28T05:24:30;3.70;;;2.80;;
2766;SDS011;1391;46.742;11.636;2023-02-28T05:26:59;3.97;;;2.97;;
2766;SDS011;1391;46.742;11.636;2023-02-28T05:29:26;4.77;;;3.00;;
2766;SDS011;1391;46.742;11.636;2023-02-28T05:31:54;3.63;;;3.13;;
2766;SDS011;1391;46.742;11.636;2023-02-28T05:34:22;3.63;;;2.80;;
2766;SDS011;1391;46.742;11.636;2023-02-28T05:36:50;4.47;;;2.63;;
2766;SDS011;1391;46.742;11.636;2023-02-28T05:39:17;4.47;;;3.00;;
2766;SDS011;1391;46.742;11.636;2023-02-28T05:41:46;4.90;;;2.80;;
2766;SDS011;1391;46.742;11.636;2023-02-28T05:44:13;3.23;;;2.80;;
2766;SDS011;1391;46.742;11.636;2023-02-28T05:46:41;3.23;;;2.73;;
2766;SDS011;1391;46.742;11.636;2023-02-28T05:49:08;4.10;;;2.67;;
2766;SDS011;1391;46.742;11.636;2023-02-28T05:51:37;3.77;;;2.63;;
2766;SDS011;1391;46.742;11.636;2023-02-28T05:54:06;5.97;;;2.30;;
2766;SDS011;1391;46.742;11.636;2023-02-28T05:56:34;2.93;;;2.57;;
2766;SDS011;1391;46.742;11.636;2023-02-28T05:59:04;3.13;;;2.73;;
2766;SDS011;1391;46.742;11.636;2023-02-28T06:01:32;4.07;;;3.17;;
2766;SDS011;1391;46.742;11.636;2023-02-28T06:04:03;3.53;;;2.70;;
2766;SDS011;1391;46.742;11.636;2023-02-28T06:06:33;3.30;;;2.37;;
2766;SDS011;1391;46.742;11.636;2023-02-28T06:09:08;2.93;;;2.60;;
2766;SDS011;1391;46.742;11.636;2023-02-28T06:11:36;3.97;;;2.97;;
2766;SDS011;1391;46.742;11.636;2023-02-28T06:14:03;5.23;;;2.60;;
2766;SDS011;1391;46.742;11.636;2023-02-28T06:16:32;4.40;;;3.10;;
2766;SDS011;1391;46.742;11.636;2023-02-28T06:19:02;5.07;;;2.70;;
2766;SDS011;1391;46.742;11.636;2023-02-28T06:21:31;4.53;;;3.00;;
2766;SDS011;1391;46.742;11.636;2023-02-28T06:24:01;3.90;;;3.03;;
2766;SDS011;1391;46.742;11.636;2023-02-28T06:26:31;4.10;;;2.87;;
2766;SDS011;1391;46.742;11.636;2023-02-28T06:28:59;3.50;;;2.73;;
2766;SDS011;1391;46.742;11.636;2023-02-28T06:31:28;4.43;;;2.93;;
2766;SDS011;1391;46.742;11.636;2023-02-28T06:33:55;3.00;;;2.70;;
2766;SDS011;1391;46.742;11.636;2023-02-28T06:36:22;4.80;;;3.07;;
2766;SDS011;1391;46.742;11.636;2023-02-28T06:38:52;3.53;;;2.87;;
2766;SDS011;1391;46.742;11.636;2023-02-28T06:41:21;2.50;;;2.30;;
2766;SDS011;1391;46.742;11.636;2023-02-28T06:43:51;3.00;;;2.67;;
2766;SDS011;1391;46.742;11.636;2023-02-28T06:46:25;3.37;;;2.60;;
2766;SDS011;1391;46.742;11.636;2023-02-28T06:48:55;7.97;;;2.57;;
2766;SDS011;1391;46.742;11.636;2023-02-28T06:51:23;3.83;;;2.47;;
2766;SDS011;1391;46.742;11.636;2023-02-28T06:53:53;4.27;;;2.67;;
2766;SDS011;1391;46.742;11.636;2023-02-28T06:56:20;6.60;;;3.20;;
2766;SDS011;1391;46.742;11.636;2023-02-28T06:58:51;3.23;;;2.43;;
2766;SDS011;1391;46.742;11.636;2023-02-28T07:01:19;4.90;;;2.70;;
2766;SDS011;1391;46.742;11.636;2023-02-28T07:03:49;5.87;;;2.40;;
2766;SDS011;1391;46.742;11.636;2023-02-28T07:06:18;7.47;;;2.53;;
2766;SDS011;1391;46.742;11.636;2023-02-28T07:08:48;4.30;;;2.50;;
2766;SDS011;1391;46.742;11.636;2023-02-28T07:11:27;4.23;;;2.77;;
2766;SDS011;1391;46.742;11.636;2023-02-28T07:13:56;3.20;;;2.67;;
2766;SDS011;1391;46.742;11.636;2023-02-28T07:16:24;5.90;;;2.97;;
2766;SDS011;1391;46.742;11.636;2023-02-28T07:18:52;10.67;;;3.13;;
2766;SDS011;1391;46.742;11.636;2023-02-28T07:21:20;3.73;;;2.73;;
2766;SDS011;1391;46.742;11.636;2023-02-28T07:23:52;5.70;;;3.20;;
2766;SDS011;1391;46.742;11.636;2023-02-28T07:26:20;5.67;;;2.83;;
2766;SDS011;1391;46.742;11.636;2023-02-28T07:28:47;5.43;;;2.67;;
2766;SDS011;1391;46.742;11.636;2023-02-28T07:31:17;3.20;;;2.70;;
2766;SDS011;1391;46.742;11.636;2023-02-28T07:33:45;7.97;;;2.67;;
2766;SDS011;1391;46.742;11.636;2023-02-28T07:36:15;5.70;;;2.40;;
2766;SDS011;1391;46.742;11.636;2023-02-28T07:38:45;3.83;;;2.53;;
2766;SDS011;1391;46.742;11.636;2023-02-28T07:41:15;4.80;;;2.60;;
2766;SDS011;1391;46.742;11.636;2023-02-28T07:43:42;3.33;;;2.63;;
2766;SDS011;1391;46.742;11.636;2023-02-28T07:46:11;7.50;;;2.90;;
2766;SDS011;1391;46.742;11.636;2023-02-28T07:48:42;10.00;;;3.00;;
2766;SDS011;1391;46.742;11.636;2023-02-28T07:51:10;4.13;;;2.53;;
2766;SDS011;1391;46.742;11.636;2023-02-28T07:53:38;5.90;;;2.70;;
2766;SDS011;1391;46.742;11.636;2023-02-28T07:56:05;4.07;;;2.47;;
2766;SDS011;1391;46.742;11.636;2023-02-28T07:58:33;5.97;;;2.60;;
2766;SDS011;1391;46.742;11.636;2023-02-28T08:01:04;3.27;;;2.57;;
2766;SDS011;1391;46.742;11.636;2023-02-28T08:03:32;6.07;;;3.27;;
2766;SDS011;1391;46.742;11.636;2023-02-28T08:06:02;13.80;;;3.20;;
2766;SDS011;1391;46.742;11.636;2023-02-28T08:08:30;3.80;;;3.13;;
2766;SDS011;1391;46.742;11.636;2023-02-28T08:10:58;4.60;;;3.23;;
2766;SDS011;1391;46.742;11.636;2023-02-28T08:13:26;5.33;;;3.10;;
2766;SDS011;1391;46.742;11.636;2023-02-28T08:15:54;9.33;;;3.10;;
2766;SDS011;1391;46.742;11.636;2023-02-28T08:18:22;3.43;;;2.87;;
2766;SDS011;1391;46.742;11.636;2023-02-28T08:20:50;6.80;;;2.90;;
2766;SDS011;1391;46.742;11.636;2023-02-28T08:23:19;3.13;;;2.67;;
2766;SDS011;1391;46.742;11.636;2023-02-28T08:25:52;3.80;;;2.60;;
2766;SDS011;1391;46.742;11.636;2023-02-28T08:28:22;3.33;;;2.47;;
2766;SDS011;1391;46.742;11.636;2023-02-28T08:30:49;3.67;;;2.83;;
2766;SDS011;1391;46.742;11.636;2023-02-28T08:33:17;4.87;;;3.00;;
2766;SDS011;1391;46.742;11.636;2023-02-28T08:35:46;3.87;;;2.50;;
2766;SDS011;1391;46.742;11.636;2023-02-28T08:38:13;4.10;;;2.90;;
2766;SDS011;1391;46.742;11.636;2023-02-28T08:40:42;4.57;;;2.70;;
2766;SDS011;1391;46.742;11.636;2023-02-28T08:43:10;6.00;;;2.80;;
2766;SDS011;1391;46.742;11.636;2023-02-28T08:45:37;8.27;;;2.70;;
2766;SDS011;1391;46.742;11.636;2023-02-28T08:48:05;6.53;;;2.53;;
2766;SDS011;1391;46.742;11.636;2023-02-28T08:50:32;5.23;;;2.53;;
2766;SDS011;1391;46.742;11.636;2023-02-28T08:52:59;4.23;;;2.40;;
2766;SDS011;1391;46.742;11.636;2023-02-28T08:55:27;5.60;;;2.67;;
2766;SDS011;1391;46.742;11.636;2023-02-28T08:57:55;7.67;;;2.50;;
2766;SDS011;1391;46.742;11.636;2023-02-28T09:00:23;3.40;;;2.77;;
2766;SDS011;1391;46.742;11.636;2023-02-28T09:02:50;7.10;;;2.80;;
2766;SDS011;1391;46.742;11.636;2023-02-28T09:05:18;10.50;;;2.80;;
2766;SDS011;1391;46.742;11.636;2023-02-28T09:07:45;3.47;;;2.50;;
2766;SDS011;1391;46.742;11.636;2023-02-28T09:10:13;4.43;;;2.70;;
2766;SDS011;1391;46.742;11.636;2023-02-28T09:12:40;10.37;;;3.00;;
2766;SDS011;1391;46.742;11.636;2023-02-28T09:15:09;7.30;;;2.67;;
2766;SDS011;1391;46.742;11.636;2023-02-28T09:17:37;5.23;;;2.83;;
2766;SDS011;1391;46.742;11.636;2023-02-28T09:20:04;2.23;;;2.03;;
2766;SDS011;1391;46.742;11.636;2023-02-28T09:22:33;2.93;;;2.47;;
2766;SDS011;1391;46.742;11.636;2023-02-28T09:25:00;3.30;;;2.40;;
2766;SDS011;1391;46.742;11.636;2023-02-28T09:27:28;2.87;;;2.57;;
2766;SDS011;1391;46.742;11.636;2023-02-28T09:29:55;6.67;;;2.80;;
2766;SDS011;1391;46.742;11.636;2023-02-28T09:32:23;4.63;;;3.10;;
2766;SDS011;1391;46.742;11.636;2023-02-28T09:34:51;6.17;;;2.43;;
2766;SDS011;1391;46.742;11.636;2023-02-28T09:37:18;8.23;;;2.30;;
2766;SDS011;1391;46.742;11.636;2023-02-28T09:39:45;7.10;;;2.50;;
2766;SDS011;1391;46.742;11.636;2023-02-28T09:42:17;5.33;;;2.30;;
2766;SDS011;1391;46.742;11.636;2023-02-28T09:44:49;6.13;;;2.43;;
2766;SDS011;1391;46.742;11.636;2023-02-28T09:47:18;7.67;;;2.73;;
2766;SDS011;1391;46.742;11.636;2023-02-28T09:49:56;5.70;;;2.43;;
2766;SDS011;1391;46.742;11.636;2023-02-28T09:52:32;6.00;;;1.90;;
2766;SDS011;1391;46.742;11.636;2023-02-28T09:55:00;3.20;;;1.80;;
2766;SDS011;1391;46.742;11.636;2023-02-28T09:57:45;3.43;;;1.83;;
2766;SDS011;1391;46.742;11.636;2023-02-28T10:00:14;2.83;;;2.17;;
2766;SDS011;1391;46.742;11.636;2023-02-28T10:02:52;2.90;;;2.00;;
2766;SDS011;1391;46.742;11.636;2023-02-28T10:05:31;4.70;;;2.27;;
2766;SDS011;1391;46.742;11.636;2023-02-28T10:08:05;2.97;;;1.90;;
2766;SDS011;1391;46.742;11.636;2023-02-28T10:10:40;7.40;;;3.07;;
2766;SDS011;1391;46.742;11.636;2023-02-28T10:13:14;3.30;;;1.87;;
2766;SDS011;1391;46.742;11.636;2023-02-28T10:15:50;2.27;;;2.07;;
2766;SDS011;1391;46.742;11.636;2023-02-28T10:18:24;3.90;;;2.50;;
2766;SDS011;1391;46.742;11.636;2023-02-28T10:20:57;4.20;;;2.40;;
2766;SDS011;1391;46.742;11.636;2023-02-28T10:23:27;8.53;;;1.90;;
2766;SDS011;1391;46.742;11.636;2023-02-28T10:25:59;6.13;;;1.83;;
2766;SDS011;1391;46.742;11.636;2023-02-28T10:28:31;5.90;;;2.00;;
2766;SDS011;1391;46.742;11.636;2023-02-28T10:30:58;6.93;;;2.40;;
2766;SDS011;1391;46.742;11.636;2023-02-28T10:33:29;9.63;;;2.73;;
2766;SDS011;1391;46.742;11.636;2023-02-28T10:36:00;2.60;;;2.10;;
2766;SDS011;1391;46.742;11.636;2023-02-28T10:38:32;5.03;;;2.00;;
2766;SDS011;1391;46.742;11.636;2023-02-28T10:41:05;3.00;;;2.10;;
2766;SDS011;1391;46.742;11.636;2023-02-28T10:43:35;5.70;;;1.93;;
2766;SDS011;1391;46.742;11.636;2023-02-28T10:46:04;2.53;;;1.90;;
2766;SDS011;1391;46.742;11.636;2023-02-28T10:48:42;3.53;;;1.90;;
2766;SDS011;1391;46.742;11.636;2023-02-28T10:51:14;4.80;;;1.87;;
2766;SDS011;1391;46.742;11.636;2023-02-28T10:53:47;3.93;;;2.10;;
2766;SDS011;1391;46.742;11.636;2023-02-28T10:56:17;2.17;;;1.70;;
2766;SDS011;1391;46.742;11.636;2023-02-28T10:58:54;2.53;;;2.07;;
2766;SDS011;1391;46.742;11.636;2023-02-28T11:01:24;3.30;;;1.90;;
2766;SDS011;1391;46.742;11.636;2023-02-28T11:04:03;2.87;;;1.70;;
2766;SDS011;1391;46.742;11.636;2023-02-28T11:06:44;6.27;;;1.90;;
2766;SDS011;1391;46.742;11.636;2023-02-28T11:09:21;2.73;;;2.00;;
2766;SDS011;1391;46.742;11.636;2023-02-28T11:11:54;2.73;;;2.07;;
2766;SDS011;1391;46.742;11.636;2023-02-28T11:14:24;2.97;;;1.87;;
2766;SDS011;1391;46.742;11.636;2023-02-28T11:16:54;2.13;;;2.00;;
2766;SDS011;1391;46.742;11.636;2023-02-28T11:19:25;6.90;;;2.20;;
2766;SDS011;1391;46.742;11.636;2023-02-28T11:22:00;2.50;;;1.90;;
2766;SDS011;1391;46.742;11.636;2023-02-28T11:24:31;3.67;;;2.00;;
2766;SDS011;1391;46.742;11.636;2023-02-28T11:27:03;3.47;;;1.97;;
2766;SDS011;1391;46.742;11.636;2023-02-28T11:29:31;2.37;;;1.80;;
2766;SDS011;1391;46.742;11.636;2023-02-28T11:32:04;2.57;;;1.70;;
2766;SDS011;1391;46.742;11.636;2023-02-28T11:34:40;3.27;;;1.53;;
2766;SDS011;1391;46.742;11.636;2023-02-28T11:37:11;4.33;;;1.77;;
2766;SDS011;1391;46.742;11.636;2023-02-28T11:39:42;1.70;;;1.60;;
2766;SDS011;1391;46.742;11.636;2023-02-28T11:42:26;2.10;;;1.90;;
2766;SDS011;1391;46.742;11.636;2023-02-28T11:45:36;3.80;;;1.60;;
2766;SDS011;1391;46.742;11.636;2023-02-28T11:48:18;1.73;;;1.50;;
2766;SDS011;1391;46.742;11.636;2023-02-28T11:50:57;14.37;;;1.90;;
2766;SDS011;1391;46.742;11.636;2023-02-28T11:56:36;2.00;;;1.80;;
2766;SDS011;1391;46.742;11.636;2023-02-28T11:59:27;2.13;;;1.73;;
2766;SDS011;1391;46.742;11.636;2023-02-28T12:02:20;2.30;;;1.77;;
2766;SDS011;1391;46.742;11.636;2023-02-28T12:04:56;1.87;;;1.67;;
2766;SDS011;1391;46.742;11.636;2023-02-28T12:07:54;3.03;;;1.53;;
2766;SDS011;1391;46.742;11.636;2023-02-28T12:10:31;3.80;;;1.77;;
2766;SDS011;1391;46.742;11.636;2023-02-28T12:13:08;2.60;;;1.50;;
2766;SDS011;1391;46.742;11.636;2023-02-28T12:15:49;3.20;;;1.97;;
2766;SDS011;1391;46.742;11.636;2023-02-28T12:18:53;7.53;;;1.40;;
2766;SDS011;1391;46.742;11.636;2023-02-28T12:21:36;3.77;;;1.63;;
2766;SDS011;1391;46.742;11.636;2023-02-28T12:27:42;2.93;;;1.60;;
2766;SDS011;1391;46.742;11.636;2023-02-28T12:30:13;2.20;;;1.80;;
2766;SDS011;1391;46.742;11.636;2023-02-28T12:32:45;13.53;;;2.27;;
2766;SDS011;1391;46.742;11.636;2023-02-28T12:35:18;2.70;;;1.90;;
2766;SDS011;1391;46.742;11.636;2023-02-28T12:37:51;1.90;;;1.70;;
2766;SDS011;1391;46.742;11.636;2023-02-28T12:40:26;2.37;;;1.80;;
2766;SDS011;1391;46.742;11.636;2023-02-28T12:43:09;13.13;;;3.17;;
2766;SDS011;1391;46.742;11.636;2023-02-28T12:45:40;16.30;;;2.13;;
2766;SDS011;1391;46.742;11.636;2023-02-28T12:48:14;5.47;;;1.70;;
2766;SDS011;1391;46.742;11.636;2023-02-28T12:50:47;7.27;;;2.13;;
2766;SDS011;1391;46.742;11.636;2023-02-28T12:53:17;8.63;;;1.77;;
2766;SDS011;1391;46.742;11.636;2023-02-28T12:55:54;1.93;;;1.40;;
2766;SDS011;1391;46.742;11.636;2023-02-28T12:58:35;2.43;;;1.80;;
2766;SDS011;1391;46.742;11.636;2023-02-28T13:01:21;6.97;;;1.90;;
2766;SDS011;1391;46.742;11.636;2023-02-28T13:04:24;2.80;;;1.50;;
2766;SDS011;1391;46.742;11.636;2023-02-28T13:07:35;4.60;;;1.70;;
2766;SDS011;1391;46.742;11.636;2023-02-28T13:10:24;7.67;;;1.70;;
2766;SDS011;1391;46.742;11.636;2023-02-28T13:13:11;5.47;;;1.67;;
2766;SDS011;1391;46.742;11.636;2023-02-28T13:18:31;1.37;;;1.03;;
2766;SDS011;1391;46.742;11.636;2023-02-28T13:21:03;6.07;;;1.30;;
2766;SDS011;1391;46.742;11.636;2023-02-28T13:23:37;3.33;;;1.40;;
2766;SDS011;1391;46.742;11.636;2023-02-28T13:29:53;2.57;;;1.07;;
2766;SDS011;1391;46.742;11.636;2023-02-28T13:35:13;3.27;;;0.90;;
2766;SDS011;1391;46.742;11.636;2023-02-28T13:44:21;1.40;;;0.70;;
2766;SDS011;1391;46.742;11.636;2023-02-28T13:52:48;4.33;;;1.10;;
2766;SDS011;1391;46.742;11.636;2023-02-28T13:55:42;1.53;;;0.93;;
2766;SDS011;1391;46.742;11.636;2023-02-28T13:58:23;0.77;;;0.63;;
2766;SDS011;1391;46.742;11.636;2023-02-28T14:01:11;3.90;;;0.70;;
2766;SDS011;1391;46.742;11.636;2023-02-28T14:04:09;1.77;;;0.90;;
2766;SDS011;1391;46.742;11.636;2023-02-28T14:07:03;2.33;;;0.80;;
2766;SDS011;1391;46.742;11.636;2023-02-28T14:09:33;0.60;;;0.60;;
2766;SDS011;1391;46.742;11.636;2023-02-28T14:15:26;0.60;;;0.60;;
2766;SDS011;1391;46.742;11.636;2023-02-28T14:18:11;1.43;;;0.73;;
2766;SDS011;1391;46.742;11.636;2023-02-28T14:20:46;1.13;;;0.60;;
2766;SDS011;1391;46.742;11.636;2023-02-28T14:23:17;2.03;;;0.50;;
2766;SDS011;1391;46.742;11.636;2023-02-28T14:26:00;0.57;;;0.50;;
2766;SDS011;1391;46.742;11.636;2023-02-28T14:28:38;0.97;;;0.60;;
2766;SDS011;1391;46.742;11.636;2023-02-28T14:31:17;2.93;;;0.77;;
2766;SDS011;1391;46.742;11.636;2023-02-28T14:36:53;0.50;;;0.50;;
2766;SDS011;1391;46.742;11.636;2023-02-28T14:39:25;0.57;;;0.57;;
2766;SDS011;1391;46.742;11.636;2023-02-28T14:41:56;0.47;;;0.47;;
2766;SDS011;1391;46.742;11.636;2023-02-28T14:44:28;0.40;;;0.40;;
2766;SDS011;1391;46.742;11.636;2023-02-28T14:46:57;0.70;;;0.70;;
2766;SDS011;1391;46.742;11.636;2023-02-28T14:49:29;0.50;;;0.40;;
2766;SDS011;1391;46.742;11.636;2023-02-28T14:52:14;0.60;;;0.57;;
2766;SDS011;1391;46.742;11.636;2023-02-28T14:54:45;0.40;;;0.40;;
2766;SDS011;1391;46.742;11.636;2023-02-28T14:57:21;1.73;;;0.50;;
2766;SDS011;1391;46.742;11.636;2023-02-28T14:59:57;1.00;;;1.00;;
2766;SDS011;1391;46.742;11.636;2023-02-28T15:02:30;0.70;;;0.70;;
2766;SDS011;1391;46.742;11.636;2023-02-28T15:05:01;0.63;;;0.63;;
2766;SDS011;1391;46.742;11.636;2023-02-28T15:08:00;1.33;;;1.03;;
2766;SDS011;1391;46.742;11.636;2023-02-28T15:10:32;1.10;;;1.00;;
2766;SDS011;1391;46.742;11.636;2023-02-28T15:13:00;1.67;;;0.87;;
2766;SDS011;1391;46.742;11.636;2023-02-28T15:15:35;1.20;;;1.10;;
2766;SDS011;1391;46.742;11.636;2023-02-28T15:18:14;1.50;;;1.30;;
2766;SDS011;1391;46.742;11.636;2023-02-28T15:20:52;1.87;;;1.50;;
2766;SDS011;1391;46.742;11.636;2023-02-28T15:23:25;1.40;;;1.30;;
2766;SDS011;1391;46.742;11.636;2023-02-28T15:25:53;2.43;;;1.20;;
2766;SDS011;1391;46.742;11.636;2023-02-28T15:28:21;1.27;;;0.90;;
2766;SDS011;1391;46.742;11.636;2023-02-28T15:30:51;0.87;;;0.87;;
2766;SDS011;1391;46.742;11.636;2023-02-28T15:33:25;1.20;;;1.10;;
2766;SDS011;1391;46.742;11.636;2023-02-28T15:36:05;2.77;;;1.43;;
2766;SDS011;1391;46.742;11.636;2023-02-28T15:38:40;2.00;;;1.33;;
2766;SDS011;1391;46.742;11.636;2023-02-28T15:41:21;1.10;;;1.00;;
2766;SDS011;1391;46.742;11.636;2023-02-28T15:47:00;4.57;;;1.30;;
2766;SDS011;1391;46.742;11.636;2023-02-28T15:49:32;1.10;;;1.00;;
2766;SDS011;1391;46.742;11.636;2023-02-28T15:52:09;3.73;;;1.30;;
2766;SDS011;1391;46.742;11.636;2023-02-28T15:54:44;1.13;;;1.03;;
2766;SDS011;1391;46.742;11.636;2023-02-28T15:57:13;1.17;;;1.07;;
2766;SDS011;1391;46.742;11.636;2023-02-28T15:59:49;2.07;;;1.70;;
2766;SDS011;1391;46.742;11.636;2023-02-28T16:02:19;1.40;;;1.30;;
2766;SDS011;1391;46.742;11.636;2023-02-28T16:04:55;1.33;;;1.23;;
2766;SDS011;1391;46.742;11.636;2023-02-28T16:07:46;1.70;;;1.60;;
2766;SDS011;1391;46.742;11.636;2023-02-28T16:10:15;2.07;;;1.50;;
2766;SDS011;1391;46.742;11.636;2023-02-28T16:12:43;2.83;;;1.60;;
2766;SDS011;1391;46.742;11.636;2023-02-28T16:15:17;2.47;;;1.50;;
2766;SDS011;1391;46.742;11.636;2023-02-28T16:17:46;1.57;;;1.40;;
2766;SDS011;1391;46.742;11.636;2023-02-28T16:20:14;3.60;;;1.90;;
2766;SDS011;1391;46.742;11.636;2023-02-28T16:22:45;12.03;;;5.40;;
2766;SDS011;1391;46.742;11.636;2023-02-28T16:25:12;3.03;;;1.30;;
2766;SDS011;1391;46.742;11.636;2023-02-28T16:27:43;2.40;;;1.27;;